Time;durP1;ratioP1;P1;durP2;ratioP2;P2;SDS_P1;SDS_P2;PMS_P1;PMS_P2;Temp;Humidity;BMP_temperature;BMP_pressure;BME280_temperature;BME280_humidity;BME280_pressure;Samples;Min_cycle;Max_cycle;Signal;HPM_P1;HPM_P2
2022/12/25 00:01:19;;;;;;;8.03;5.70;;;7.70;99.90;;;;;;6367844;22;20150;-35
2022/12/25 00:03:45;;;;;;;9.10;6.97;;;7.70;99.90;;;;;;6339720;22;20163;-36
2022/12/25 00:06:11;;;;;;;11.47;6.43;;;7.70;99.90;;;;;;6367618;22;20162;-35
2022/12/25 00:08:38;;;;;;;9.37;6.30;;;7.60;99.90;;;;;;6340179;22;20165;-36
2022/12/25 00:11:07;;;;;;;10.57;6.30;;;7.50;99.90;;;;;;6339542;22;20237;-35
2022/12/25 00:13:33;;;;;;;7.87;5.63;;;7.50;99.90;;;;;;6340208;22;20186;-36
2022/12/25 00:15:59;;;;;;;7.27;5.13;;;7.50;99.90;;;;;;6340406;22;20150;-36
2022/12/25 00:18:25;;;;;;;8.10;5.87;;;7.50;99.90;;;;;;6339646;22;20165;-36
2022/12/25 00:21:03;;;;;;;7.90;6.27;;;7.50;99.90;;;;;;6339584;22;20230;-36
2022/12/25 00:23:29;;;;;;;8.40;6.30;;;7.60;99.90;;;;;;6367528;22;20174;-36
2022/12/25 00:25:55;;;;;;;8.27;5.90;;;7.60;99.90;;;;;;6367529;22;20151;-35
2022/12/25 00:28:22;;;;;;;9.07;6.23;;;7.60;99.90;;;;;;6313903;22;20162;-36
2022/12/25 00:30:48;;;;;;;8.60;5.97;;;7.60;99.90;;;;;;6313762;22;20175;-36
2022/12/25 00:33:14;;;;;;;7.80;6.03;;;7.60;99.90;;;;;;6339055;22;20178;-35
2022/12/25 00:35:40;;;;;;;8.23;6.20;;;7.70;99.90;;;;;;6340129;22;20178;-34
2022/12/25 00:38:07;;;;;;;6.43;5.20;;;7.70;99.90;;;;;;6313310;22;20182;-37
2022/12/25 00:40:40;;;;;;;7.83;5.37;;;7.70;99.90;;;;;;6339132;22;20169;-37
2022/12/25 00:43:07;;;;;;;7.20;5.23;;;7.80;99.90;;;;;;6339548;22;20173;-35
2022/12/25 00:45:34;;;;;;;8.83;5.50;;;7.80;99.90;;;;;;6367629;22;20178;-34
2022/12/25 00:48:00;;;;;;;6.40;4.87;;;7.80;99.90;;;;;;6313845;22;20208;-35
2022/12/25 00:50:26;;;;;;;7.63;5.00;;;7.80;99.90;;;;;;6313319;22;20196;-37
2022/12/25 00:52:52;;;;;;;5.87;4.50;;;7.80;99.90;;;;;;6339777;22;20190;-33
2022/12/25 00:55:18;;;;;;;6.40;5.23;;;7.80;99.90;;;;;;6367068;22;20225;-33
2022/12/25 00:57:44;;;;;;;5.60;4.43;;;7.80;99.90;;;;;;6367401;22;20229;-36
2022/12/25 01:00:10;;;;;;;6.50;4.43;;;7.90;99.90;;;;;;6339258;22;20165;-34
2022/12/25 01:02:36;;;;;;;5.20;4.33;;;7.90;99.90;;;;;;6339402;22;20258;-34
2022/12/25 01:05:02;;;;;;;6.00;4.57;;;7.90;99.90;;;;;;6367811;22;20159;-34
2022/12/25 01:07:28;;;;;;;5.93;5.00;;;7.90;99.90;;;;;;6313899;22;20233;-34
2022/12/25 01:12:40;;;;;;;5.73;4.83;;;7.90;99.90;;;;;;6366905;22;20265;-37
2022/12/25 01:15:08;;;;;;;6.60;4.47;;;8.00;99.90;;;;;;6313140;22;20237;-38
2022/12/25 01:17:34;;;;;;;6.37;4.63;;;8.00;99.90;;;;;;6367477;22;20158;-33
2022/12/25 01:20:00;;;;;;;6.20;4.57;;;8.00;99.90;;;;;;6367006;22;20155;-33
2022/12/25 01:22:26;;;;;;;6.60;5.70;;;8.00;99.90;;;;;;6339223;22;20182;-33
2022/12/25 01:24:51;;;;;;;7.10;5.87;;;7.90;99.90;;;;;;6313269;22;20158;-34
2022/12/25 01:27:17;;;;;;;9.17;5.63;;;7.80;99.90;;;;;;6339660;22;20155;-33
2022/12/25 01:29:45;;;;;;;7.27;6.37;;;7.70;99.90;;;;;;6312786;22;20158;-35
2022/12/25 01:32:10;;;;;;;7.97;5.93;;;7.70;99.90;;;;;;6339140;22;20183;-34
2022/12/25 01:34:36;;;;;;;7.60;5.80;;;7.70;99.90;;;;;;6339397;22;20169;-33
2022/12/25 01:37:02;;;;;;;7.03;5.70;;;7.80;99.90;;;;;;6339656;22;20153;-33
2022/12/25 01:39:28;;;;;;;9.30;6.30;;;7.80;99.90;;;;;;6312929;22;20165;-33
2022/12/25 01:41:55;;;;;;;8.37;6.00;;;7.80;99.90;;;;;;6366872;22;20165;-36
2022/12/25 01:44:36;;;;;;;8.00;5.83;;;7.80;99.90;;;;;;6339362;22;20162;-34
2022/12/25 01:47:03;;;;;;;8.23;6.10;;;7.80;99.90;;;;;;6368508;22;20158;-36
2022/12/25 01:49:33;;;;;;;7.73;6.17;;;7.70;99.90;;;;;;6314333;22;20155;-36
2022/12/25 01:51:58;;;;;;;7.27;5.97;;;7.70;99.90;;;;;;6313264;22;20194;-34
2022/12/25 01:54:33;;;;;;;8.17;5.90;;;7.70;99.90;;;;;;6339082;22;20320;-34
2022/12/25 01:57:03;;;;;;;7.00;5.50;;;7.60;99.90;;;;;;6339069;22;20162;-33
2022/12/25 01:59:29;;;;;;;8.40;5.90;;;7.60;99.90;;;;;;6337379;22;20173;-38
2022/12/25 02:01:56;;;;;;;7.93;5.83;;;7.70;99.90;;;;;;6366998;22;20182;-35
2022/12/25 02:04:43;;;;;;;6.30;5.50;;;7.70;99.90;;;;;;6339224;22;20215;-33
2022/12/25 02:07:19;;;;;;;7.33;5.43;;;7.70;99.90;;;;;;6367166;22;20139;-33
2022/12/25 02:09:46;;;;;;;9.03;6.13;;;7.70;99.90;;;;;;6312852;22;20150;-35
2022/12/25 02:12:26;;;;;;;7.17;5.77;;;7.70;99.90;;;;;;6366910;22;20175;-33
2022/12/25 02:14:56;;;;;;;7.43;5.40;;;7.70;99.90;;;;;;6338908;22;20155;-35
2022/12/25 02:17:25;;;;;;;7.63;5.60;;;7.60;99.90;;;;;;6338856;22;20199;-34
2022/12/25 02:19:59;;;;;;;7.23;5.90;;;7.60;99.90;;;;;;6338604;22;20201;-33
2022/12/25 02:22:43;;;;;;;7.30;5.63;;;7.60;99.90;;;;;;6339537;22;20182;-33
2022/12/25 02:25:37;;;;;;;6.67;5.60;;;7.60;99.90;;;;;;6312737;22;20149;-37
2022/12/25 02:28:23;;;;;;;7.80;5.57;;;7.60;99.90;;;;;;6367200;22;20159;-34
2022/12/25 02:31:04;;;;;;;6.50;5.67;;;7.50;99.90;;;;;;6286275;22;20169;-36
2022/12/25 02:36:28;;;;;;;7.73;5.87;;;7.50;99.90;;;;;;6338896;22;20166;-34
2022/12/25 02:41:46;;;;;;;7.63;6.10;;;7.50;99.90;;;;;;6368423;22;20226;-35
2022/12/25 03:06:44;;;;;;;7.40;5.87;;;7.50;99.90;;;;;;6308484;22;20150;-33
2022/12/25 03:12:25;;;;;;;8.30;5.87;;;7.50;99.90;;;;;;6336718;22;20171;-34
2022/12/25 03:17:35;;;;;;;8.63;6.33;;;7.50;99.90;;;;;;6309173;22;20151;-32
2022/12/25 03:28:17;;;;;;;8.00;6.47;;;7.50;99.90;;;;;;6337002;22;20139;-32
2022/12/25 03:31:16;;;;;;;7.90;6.90;;;7.50;99.90;;;;;;6282961;22;20265;-33
2022/12/25 04:37:13;;;;;;;8.83;7.50;;;7.10;99.90;;;;;;6335911;22;20170;-33
2022/12/25 04:39:39;;;;;;;10.43;8.50;;;7.10;99.90;;;;;;6335836;22;20159;-33
2022/12/25 04:42:05;;;;;;;11.60;8.03;;;7.10;99.90;;;;;;6335984;22;20171;-32
2022/12/25 04:44:30;;;;;;;11.57;7.60;;;7.10;99.90;;;;;;6308210;22;20220;-33
2022/12/25 04:46:56;;;;;;;11.37;8.23;;;7.10;99.90;;;;;;6282394;22;20170;-33
2022/12/25 04:49:22;;;;;;;9.37;7.70;;;7.20;99.90;;;;;;6308217;22;20158;-33
2022/12/25 04:51:48;;;;;;;10.70;7.90;;;7.20;99.90;;;;;;6308260;22;20155;-32
2022/12/25 04:54:14;;;;;;;10.50;7.37;;;7.20;99.90;;;;;;6308285;22;20160;-33
2022/12/25 04:56:40;;;;;;;10.03;7.97;;;7.20;99.90;;;;;;6308065;22;20155;-33
2022/12/25 04:59:06;;;;;;;11.37;8.37;;;7.20;99.90;;;;;;6307866;22;20169;-32
2022/12/25 05:01:32;;;;;;;9.47;7.70;;;7.30;99.90;;;;;;6335961;22;20150;-34
2022/12/25 05:03:57;;;;;;;9.47;7.50;;;7.30;99.90;;;;;;6334638;22;20245;-32
2022/12/25 05:06:23;;;;;;;10.23;8.00;;;7.30;99.90;;;;;;6310413;22;20174;-34
2022/12/25 05:08:49;;;;;;;10.00;7.70;;;7.30;99.90;;;;;;6308865;22;20215;-34
2022/12/25 05:11:15;;;;;;;11.50;7.90;;;7.30;99.90;;;;;;6308310;22;20627;-33
2022/12/25 05:13:41;;;;;;;10.37;8.13;;;7.30;99.90;;;;;;6336277;22;20222;-33
2022/12/25 05:16:11;;;;;;;13.43;8.00;;;7.30;99.90;;;;;;6282446;22;20151;-34
2022/12/25 05:18:37;;;;;;;9.20;7.60;;;7.30;99.90;;;;;;6307933;22;20155;-33
2022/12/25 05:21:04;;;;;;;9.30;7.90;;;7.30;99.90;;;;;;6307652;22;20147;-33
2022/12/25 05:23:30;;;;;;;9.77;7.43;;;7.30;99.90;;;;;;6335587;22;20262;-33
2022/12/25 05:25:56;;;;;;;9.27;7.30;;;7.30;99.90;;;;;;6308010;22;20159;-33
2022/12/25 05:28:22;;;;;;;9.83;7.47;;;7.30;99.90;;;;;;6308272;22;20586;-31
2022/12/25 05:30:47;;;;;;;9.27;8.27;;;7.30;99.90;;;;;;6307691;22;20175;-32
2022/12/25 05:33:14;;;;;;;9.63;8.13;;;7.30;99.90;;;;;;6336106;22;20202;-32
2022/12/25 05:35:40;;;;;;;9.40;7.53;;;7.30;99.90;;;;;;6335382;22;20196;-34
2022/12/25 05:38:06;;;;;;;9.60;7.63;;;7.30;99.90;;;;;;6336122;22;20147;-33
2022/12/25 05:40:33;;;;;;;12.23;8.77;;;7.30;99.90;;;;;;6307452;22;20188;-33
2022/12/25 05:42:59;;;;;;;11.10;8.93;;;7.30;99.90;;;;;;6307740;22;20222;-32
2022/12/25 05:45:25;;;;;;;11.93;9.33;;;7.30;99.90;;;;;;6335856;22;20198;-32
2022/12/25 05:47:51;;;;;;;12.47;8.70;;;7.30;99.90;;;;;;6307971;22;20156;-34
2022/12/25 05:50:17;;;;;;;13.00;8.57;;;7.30;99.90;;;;;;6283369;22;20156;-32
2022/12/25 05:52:43;;;;;;;11.80;8.97;;;7.30;99.90;;;;;;6309936;22;20641;-32
2022/12/25 05:55:09;;;;;;;13.13;8.43;;;7.30;99.90;;;;;;6309672;22;20178;-32
2022/12/25 05:57:35;;;;;;;11.83;8.20;;;7.30;99.90;;;;;;6284053;22;20246;-32
2022/12/25 06:00:00;;;;;;;12.33;8.50;;;7.30;99.90;;;;;;6337896;22;20212;-31
2022/12/25 06:02:26;;;;;;;12.40;7.90;;;7.30;99.90;;;;;;6309848;22;20182;-31
2022/12/25 06:04:52;;;;;;;12.83;7.97;;;7.30;99.90;;;;;;6337606;22;20140;-32
2022/12/25 06:07:18;;;;;;;14.73;8.67;;;7.20;99.90;;;;;;6337426;22;20132;-31
2022/12/25 06:09:44;;;;;;;14.13;7.63;;;7.20;99.90;;;;;;6310138;22;20144;-34
2022/12/25 06:12:09;;;;;;;15.97;8.53;;;7.10;99.90;;;;;;6309427;22;20175;-32
2022/12/25 06:14:35;;;;;;;14.33;8.63;;;7.00;99.90;;;;;;6307406;22;20179;-31
2022/12/25 06:17:01;;;;;;;18.23;9.67;;;6.90;99.90;;;;;;6336742;22;20155;-31
2022/12/25 06:19:27;;;;;;;9.53;7.73;;;6.90;99.90;;;;;;6283188;22;20597;-32
2022/12/25 06:21:54;;;;;;;11.23;8.23;;;6.80;99.90;;;;;;6310368;22;20190;-32
2022/12/25 06:24:20;;;;;;;11.87;8.30;;;6.80;99.90;;;;;;6309557;22;20193;-31
2022/12/25 06:26:46;;;;;;;11.60;8.50;;;6.80;99.90;;;;;;6310275;22;20148;-32
2022/12/25 06:29:13;;;;;;;10.43;8.07;;;6.90;99.90;;;;;;6309510;22;20182;-32
2022/12/25 06:31:38;;;;;;;10.87;7.67;;;6.90;99.90;;;;;;6309581;22;20163;-31
2022/12/25 06:34:04;;;;;;;9.87;7.67;;;6.90;99.90;;;;;;6283159;22;20240;-32
2022/12/25 06:36:30;;;;;;;9.57;7.83;;;6.90;99.90;;;;;;6309135;22;20155;-31
2022/12/25 06:38:59;;;;;;;10.43;7.70;;;6.80;99.90;;;;;;6309512;22;20152;-33
2022/12/25 06:41:28;;;;;;;11.87;7.67;;;6.80;99.90;;;;;;6309816;22;20186;-32
2022/12/25 06:43:56;;;;;;;21.60;7.70;;;6.70;99.90;;;;;;6309334;22;20190;-32
2022/12/25 06:46:23;;;;;;;21.77;7.30;;;6.70;99.90;;;;;;6309553;22;20225;-31
2022/12/25 06:48:49;;;;;;;7.43;6.30;;;6.70;99.90;;;;;;6283567;22;20166;-31
2022/12/25 06:51:23;;;;;;;8.40;6.70;;;6.60;99.90;;;;;;6310626;22;20234;-32
2022/12/25 06:53:51;;;;;;;11.90;7.47;;;6.60;99.90;;;;;;6336560;22;20246;-33
2022/12/25 06:56:20;;;;;;;8.10;6.83;;;6.60;99.90;;;;;;6309033;22;20166;-32
2022/12/25 06:58:49;;;;;;;8.20;6.60;;;6.60;99.90;;;;;;6308901;22;20169;-34
2022/12/25 07:01:22;;;;;;;8.90;7.50;;;6.60;99.90;;;;;;6309207;22;20599;-33
2022/12/25 07:03:53;;;;;;;7.57;6.53;;;6.60;99.90;;;;;;6308791;22;20186;-33
2022/12/25 07:06:19;;;;;;;9.57;7.33;;;6.60;99.90;;;;;;6309004;22;20163;-33
2022/12/25 07:08:45;;;;;;;9.00;8.03;;;6.60;99.90;;;;;;6336333;22;20159;-33
2022/12/25 07:11:11;;;;;;;9.57;7.70;;;6.60;99.90;;;;;;6336690;22;20148;-33
2022/12/25 07:13:37;;;;;;;9.33;7.97;;;6.70;99.90;;;;;;6308821;22;20191;-31
2022/12/25 07:16:04;;;;;;;10.50;7.93;;;6.70;99.90;;;;;;6283423;22;20162;-33
2022/12/25 07:18:30;;;;;;;11.33;8.60;;;6.70;99.90;;;;;;6308644;22;20155;-32
2022/12/25 07:20:58;;;;;;;11.90;9.73;;;6.70;99.90;;;;;;6308767;22;20148;-33
2022/12/25 07:23:25;;;;;;;10.97;8.30;;;6.70;99.90;;;;;;6336530;22;20178;-32
2022/12/25 07:25:56;;;;;;;10.93;8.87;;;6.60;99.90;;;;;;6308743;22;20216;-32
2022/12/25 07:28:22;;;;;;;9.07;7.50;;;6.60;99.90;;;;;;6309355;22;20192;-33
2022/12/25 07:30:48;;;;;;;10.63;8.30;;;6.60;99.90;;;;;;6336004;22;20156;-31
2022/12/25 07:33:14;;;;;;;9.53;8.33;;;6.60;99.90;;;;;;6309016;22;20179;-31
2022/12/25 07:35:40;;;;;;;11.33;8.13;;;6.60;99.90;;;;;;6309246;22;20150;-32
2022/12/25 07:38:06;;;;;;;9.07;8.07;;;6.60;99.90;;;;;;6336682;22;20170;-32
2022/12/25 07:40:32;;;;;;;10.03;8.33;;;6.60;99.90;;;;;;6309001;22;20166;-32
2022/12/25 07:42:57;;;;;;;10.37;8.03;;;6.60;99.90;;;;;;6308481;22;20591;-32
2022/12/25 07:45:23;;;;;;;11.40;7.50;;;6.60;99.90;;;;;;6336723;22;20154;-31
2022/12/25 07:47:49;;;;;;;8.90;7.33;;;6.60;99.90;;;;;;6308388;22;20161;-32
2022/12/25 07:50:15;;;;;;;10.00;7.13;;;6.60;99.90;;;;;;6308674;22;20237;-32
2022/12/25 07:52:42;;;;;;;13.53;8.63;;;6.60;99.90;;;;;;6336502;22;20185;-33
2022/12/25 07:55:08;;;;;;;8.00;7.20;;;6.50;99.90;;;;;;6283000;22;20204;-33
2022/12/25 07:57:35;;;;;;;13.73;8.20;;;6.50;99.90;;;;;;6308893;22;20158;-31
2022/12/25 08:00:05;;;;;;;12.43;8.40;;;6.50;99.90;;;;;;6336658;22;20155;-32
2022/12/25 08:02:37;;;;;;;12.37;8.00;;;6.50;99.90;;;;;;6336257;22;20186;-32
2022/12/25 08:05:04;;;;;;;22.87;9.77;;;6.50;99.90;;;;;;6336856;22;20178;-31
2022/12/25 08:07:29;;;;;;;18.30;9.43;;;6.50;99.90;;;;;;6336254;22;20157;-32
2022/12/25 08:09:55;;;;;;;12.37;8.83;;;6.50;99.90;;;;;;6336658;22;20154;-33
2022/12/25 08:12:21;;;;;;;67.23;11.10;;;6.50;99.90;;;;;;6308717;22;20181;-32
2022/12/25 08:14:47;;;;;;;38.87;8.90;;;6.40;99.90;;;;;;6282609;22;20151;-32
2022/12/25 08:17:13;;;;;;;85.60;11.27;;;6.40;99.90;;;;;;6282960;22;20161;-34
2022/12/25 08:19:38;;;;;;;28.80;10.07;;;6.30;99.90;;;;;;6281701;22;20154;-31
2022/12/25 08:22:04;;;;;;;24.90;10.60;;;6.30;99.90;;;;;;6308365;22;20179;-31
2022/12/25 08:24:30;;;;;;;99.20;10.13;;;6.30;99.90;;;;;;6307732;22;20147;-31
2022/12/25 08:26:56;;;;;;;173.63;13.60;;;6.40;99.90;;;;;;6280204;22;20162;-32
2022/12/25 08:29:22;;;;;;;82.83;9.63;;;6.30;99.90;;;;;;6307758;22;20155;-32
2022/12/25 08:31:48;;;;;;;127.83;10.50;;;6.20;99.90;;;;;;6335982;22;20584;-33
2022/12/25 08:34:14;;;;;;;85.57;8.97;;;6.20;99.90;;;;;;6336520;22;20232;-32
2022/12/25 08:36:40;;;;;;;86.03;8.23;;;6.20;99.90;;;;;;6309045;22;20250;-32
2022/12/25 08:39:07;;;;;;;96.37;8.43;;;6.20;99.90;;;;;;6335981;22;20153;-31
2022/12/25 08:41:35;;;;;;;92.13;10.70;;;6.10;99.90;;;;;;6308493;22;20340;-33
2022/12/25 08:44:02;;;;;;;102.10;9.87;;;6.00;99.90;;;;;;6308471;22;20159;-32
2022/12/25 08:46:28;;;;;;;75.30;9.73;;;6.00;99.90;;;;;;6308889;22;20156;-32
2022/12/25 08:48:55;;;;;;;20.10;8.00;;;6.00;99.90;;;;;;6336188;22;20158;-30
2022/12/25 08:51:22;;;;;;;32.07;7.63;;;6.00;99.90;;;;;;6308701;22;20166;-32
2022/12/25 08:53:50;;;;;;;26.97;7.90;;;6.10;99.90;;;;;;6308715;22;20194;-31
2022/12/25 08:56:17;;;;;;;10.00;7.57;;;6.10;99.90;;;;;;6305268;22;20158;-31
2022/12/25 08:58:43;;;;;;;13.13;7.90;;;6.20;99.90;;;;;;6282049;22;20186;-31
2022/12/25 09:01:10;;;;;;;10.67;9.30;;;6.30;99.90;;;;;;6308560;22;20190;-32
2022/12/25 09:03:38;;;;;;;13.90;9.53;;;6.40;99.90;;;;;;6309766;22;20179;-32
2022/12/25 09:06:07;;;;;;;23.43;16.17;;;6.50;99.90;;;;;;6309153;22;20166;-31
2022/12/25 09:08:34;;;;;;;22.10;15.70;;;6.60;99.90;;;;;;6302846;22;20166;-31
2022/12/25 09:11:02;;;;;;;14.90;12.23;;;6.70;99.90;;;;;;6308984;22;20605;-33
2022/12/25 09:13:27;;;;;;;14.40;11.57;;;6.80;99.90;;;;;;6283269;22;20187;-32
2022/12/25 09:15:53;;;;;;;12.93;10.97;;;6.90;99.90;;;;;;6308918;22;20165;-31
2022/12/25 09:18:19;;;;;;;11.80;9.50;;;6.90;99.90;;;;;;6305845;22;20169;-33
2022/12/25 09:20:45;;;;;;;11.90;9.97;;;6.90;99.90;;;;;;6305606;22;20162;-32
2022/12/25 09:23:11;;;;;;;12.77;9.57;;;7.00;99.90;;;;;;6306792;22;20220;-33
2022/12/25 09:25:38;;;;;;;9.40;8.40;;;7.00;99.90;;;;;;6333909;22;20159;-33
2022/12/25 09:28:04;;;;;;;10.93;8.43;;;7.00;99.90;;;;;;6334123;22;20158;-32
2022/12/25 09:30:30;;;;;;;8.97;8.03;;;6.90;99.90;;;;;;6307843;22;20155;-33
2022/12/25 09:32:56;;;;;;;9.13;7.63;;;7.00;99.90;;;;;;6308516;22;20193;-32
2022/12/25 09:35:22;;;;;;;10.57;9.17;;;7.10;99.90;;;;;;6306929;22;20166;-32
2022/12/25 09:37:48;;;;;;;12.50;9.63;;;7.20;99.90;;;;;;6307194;22;20155;-32
2022/12/25 09:40:20;;;;;;;11.17;9.83;;;7.30;99.90;;;;;;6281229;22;20166;-31
2022/12/25 09:42:48;;;;;;;11.80;9.43;;;7.50;99.90;;;;;;6306450;22;20229;-33
2022/12/25 09:45:23;;;;;;;12.17;9.97;;;7.60;99.90;;;;;;6306675;22;20163;-33
2022/12/25 09:47:57;;;;;;;10.43;9.33;;;7.70;99.90;;;;;;6306799;22;20155;-32
2022/12/25 09:50:32;;;;;;;11.23;10.03;;;7.90;99.90;;;;;;6305853;22;20154;-32
2022/12/25 09:53:21;;;;;;;11.53;9.83;;;7.90;99.90;;;;;;6333298;22;20194;-32
2022/12/25 09:56:11;;;;;;;10.70;9.60;;;8.00;99.90;;;;;;6305588;22;20177;-32
2022/12/25 09:58:37;;;;;;;11.20;9.40;;;8.20;99.90;;;;;;6305950;22;20220;-32
2022/12/25 10:01:20;;;;;;;13.43;9.40;;;8.30;99.90;;;;;;6280787;22;20162;-31
2022/12/25 10:04:12;;;;;;;10.50;9.10;;;8.40;99.90;;;;;;6333772;22;20199;-34
2022/12/25 10:06:52;;;;;;;13.50;10.13;;;8.50;99.90;;;;;;6333956;22;20152;-32
2022/12/25 10:09:21;;;;;;;11.77;9.33;;;8.60;99.90;;;;;;6305662;22;20159;-32
2022/12/25 10:11:47;;;;;;;12.37;10.03;;;8.80;99.90;;;;;;6306874;22;20173;-32
2022/12/25 10:14:38;;;;;;;13.43;10.37;;;8.90;99.90;;;;;;6306188;22;20250;-33
2022/12/25 10:17:06;;;;;;;12.70;10.80;;;9.00;99.90;;;;;;6333737;22;20152;-31
2022/12/25 10:19:56;;;;;;;14.27;10.00;;;9.00;99.90;;;;;;6306303;22;20152;-32
2022/12/25 10:22:33;;;;;;;10.53;9.43;;;9.10;99.90;;;;;;6280269;22;20578;-33
2022/12/25 10:25:01;;;;;;;11.90;9.00;;;9.20;99.90;;;;;;6306379;22;20151;-32
2022/12/25 10:27:39;;;;;;;11.70;8.57;;;9.20;99.90;;;;;;6333626;22;20151;-32
2022/12/25 10:30:20;;;;;;;9.20;7.87;;;9.30;99.90;;;;;;6306042;22;20168;-32
2022/12/25 10:32:47;;;;;;;8.40;7.53;;;9.40;99.90;;;;;;6332872;22;20271;-31
2022/12/25 10:35:16;;;;;;;8.27;6.90;;;9.40;99.90;;;;;;6305297;22;20156;-33
2022/12/25 10:37:45;;;;;;;8.97;6.57;;;9.50;99.90;;;;;;6305762;22;20155;-35
2022/12/25 10:40:23;;;;;;;7.20;6.13;;;9.60;99.90;;;;;;6305678;22;20160;-32
2022/12/25 10:42:55;;;;;;;6.10;5.50;;;9.60;99.90;;;;;;6280462;22;20513;-32
2022/12/25 10:45:20;;;;;;;7.37;5.53;;;9.70;99.90;;;;;;6333940;22;20144;-34
2022/12/25 10:47:48;;;;;;;5.57;4.93;;;9.80;99.90;;;;;;6305449;22;20594;-33
2022/12/25 10:50:24;;;;;;;7.40;5.70;;;9.90;99.90;;;;;;6305871;22;20184;-32
2022/12/25 10:53:04;;;;;;;5.67;4.73;;;10.00;99.90;;;;;;6240917;22;1486360;-33
2022/12/25 10:55:33;;;;;;;6.90;4.83;;;10.10;99.90;;;;;;6280782;22;20159;-33
2022/12/25 10:58:00;;;;;;;5.70;4.47;;;10.10;99.90;;;;;;6280454;22;20148;-33
2022/12/25 11:00:29;;;;;;;5.00;4.47;;;10.20;99.90;;;;;;6306614;22;20606;-33
2022/12/25 11:02:55;;;;;;;5.53;4.20;;;10.30;99.90;;;;;;6307524;22;20183;-33
2022/12/25 11:05:32;;;;;;;5.27;4.20;;;10.40;99.90;;;;;;6308112;22;20162;-33
2022/12/25 11:08:00;;;;;;;5.60;4.97;;;10.50;99.90;;;;;;6304353;22;20209;-33
2022/12/25 11:10:34;;;;;;;5.93;5.07;;;10.60;99.90;;;;;;6308519;22;20160;-32
2022/12/25 11:13:01;;;;;;;7.43;5.00;;;10.70;99.90;;;;;;6336292;22;20190;-33
2022/12/25 11:15:42;;;;;;;5.63;5.10;;;10.70;99.90;;;;;;6309273;22;20247;-32
2022/12/25 11:18:21;;;;;;;5.93;4.30;;;10.70;99.90;;;;;;6309403;22;20153;-32
2022/12/25 11:21:15;;;;;;;5.03;4.40;;;10.80;99.90;;;;;;6336733;22;20162;-32
2022/12/25 11:23:49;;;;;;;6.57;5.10;;;10.90;99.90;;;;;;6309223;22;20169;-32
2022/12/25 11:26:17;;;;;;;7.97;7.17;;;11.00;99.90;;;;;;6309468;22;20212;-32
2022/12/25 11:28:44;;;;;;;9.07;7.70;;;11.00;99.90;;;;;;6308030;22;20598;-32
2022/12/25 11:31:39;;;;;;;9.90;8.17;;;11.00;99.90;;;;;;6309106;22;20156;-32
2022/12/25 11:34:37;;;;;;;8.27;7.30;;;11.10;99.90;;;;;;6308340;22;20177;-32
2022/12/25 11:37:11;;;;;;;7.57;6.77;;;11.00;99.90;;;;;;6283237;22;20153;-33
2022/12/25 11:39:40;;;;;;;9.53;8.53;;;11.10;99.90;;;;;;6307484;22;20176;-33
2022/12/25 11:42:31;;;;;;;11.83;7.93;;;11.20;99.90;;;;;;6308719;22;20180;-32
2022/12/25 11:45:10;;;;;;;8.23;7.37;;;11.30;99.90;;;;;;6308618;22;20160;-32
2022/12/25 11:47:48;;;;;;;8.03;7.23;;;11.40;99.90;;;;;;6309252;22;20153;-33
2022/12/25 11:50:26;;;;;;;7.90;6.80;;;11.50;99.90;;;;;;6337460;22;20181;-32
2022/12/25 11:52:53;;;;;;;7.73;6.67;;;11.50;99.90;;;;;;6283610;22;20193;-34
2022/12/25 11:55:34;;;;;;;7.83;7.03;;;11.50;99.90;;;;;;6308577;22;20195;-34
2022/12/25 11:58:21;;;;;;;6.87;6.23;;;11.50;99.90;;;;;;6308979;22;20648;-34
2022/12/25 12:00:50;;;;;;;7.77;6.77;;;11.50;99.90;;;;;;6308482;22;20149;-34
2022/12/25 12:03:36;;;;;;;8.30;7.50;;;11.60;99.90;;;;;;6308605;22;20174;-33
2022/12/25 12:06:06;;;;;;;7.70;6.90;;;11.70;99.90;;;;;;6309394;22;20165;-33
2022/12/25 12:08:34;;;;;;;7.63;6.83;;;11.80;99.90;;;;;;6335911;22;20172;-32
2022/12/25 12:10:59;;;;;;;7.40;6.60;;;11.70;99.90;;;;;;6308340;22;20162;-32
2022/12/25 12:13:42;;;;;;;7.30;6.40;;;11.80;99.90;;;;;;6335973;22;20181;-34
2022/12/25 12:16:09;;;;;;;7.70;6.53;;;11.80;99.90;;;;;;6336358;22;20140;-33
2022/12/25 12:18:35;;;;;;;7.33;6.63;;;12.00;99.90;;;;;;6307544;22;20155;-32
2022/12/25 12:21:27;;;;;;;7.53;6.20;;;12.00;99.90;;;;;;6308223;22;20158;-34
2022/12/25 12:24:15;;;;;;;8.10;7.30;;;12.10;99.90;;;;;;6283219;22;20201;-32
2022/12/25 12:26:43;;;;;;;7.83;7.07;;;12.20;99.90;;;;;;6308985;22;20204;-34
2022/12/25 12:29:24;;;;;;;8.30;6.57;;;12.40;99.90;;;;;;6336133;22;20215;-34
2022/12/25 12:31:51;;;;;;;7.93;5.90;;;12.40;99.90;;;;;;6308048;22;20151;-34
2022/12/25 12:34:28;;;;;;;7.80;6.87;;;12.50;99.90;;;;;;6308158;22;20221;-32
2022/12/25 12:37:00;;;;;;;9.90;7.20;;;12.60;99.90;;;;;;6335888;22;20142;-34
2022/12/25 12:39:35;;;;;;;11.60;8.50;;;12.60;99.90;;;;;;6282381;22;20200;-32
2022/12/25 12:42:10;;;;;;;11.87;8.30;;;12.70;99.90;;;;;;6336132;22;20306;-34
2022/12/25 12:44:36;;;;;;;10.43;7.43;;;12.80;99.90;;;;;;6308094;22;20147;-33
2022/12/25 12:47:02;;;;;;;9.10;7.67;;;12.90;99.90;;;;;;6307797;22;20142;-34
2022/12/25 12:49:31;;;;;;;9.50;7.53;;;13.00;99.90;;;;;;6281584;22;20187;-34
2022/12/25 12:52:31;;;;;;;8.37;7.47;;;13.10;99.90;;;;;;6281844;22;20201;-33
2022/12/25 12:55:12;;;;;;;7.73;6.77;;;13.20;99.90;;;;;;6281491;22;20155;-32
2022/12/25 12:57:39;;;;;;;6.30;5.27;;;13.30;99.90;;;;;;6308057;22;20150;-35
2022/12/25 13:00:17;;;;;;;5.90;5.30;;;13.30;99.90;;;;;;6282318;22;20156;-33
2022/12/25 13:03:11;;;;;;;7.07;5.63;;;13.40;99.90;;;;;;6308008;22;20175;-32
2022/12/25 13:05:53;;;;;;;6.30;5.50;;;13.40;99.90;;;;;;6334707;22;20135;-32
2022/12/25 13:08:34;;;;;;;5.30;4.80;;;13.50;99.90;;;;;;6335644;22;20135;-34
2022/12/25 13:11:24;;;;;;;5.17;4.67;;;13.60;99.90;;;;;;6307690;22;20132;-33
2022/12/25 13:13:53;;;;;;;4.33;3.93;;;13.60;99.90;;;;;;6307848;22;20194;-33
2022/12/25 13:16:28;;;;;;;6.77;5.73;;;13.70;99.90;;;;;;6308506;22;20151;-34
2022/12/25 13:18:55;;;;;;;7.53;4.93;;;13.70;99.90;;;;;;6307592;22;20143;-33
2022/12/25 13:21:26;;;;;;;6.23;4.83;;;13.80;99.90;;;;;;6308167;22;20159;-33
2022/12/25 13:24:01;;;;;;;5.30;4.80;;;13.80;99.90;;;;;;6335595;22;20220;-33
2022/12/25 13:26:29;;;;;;;4.80;4.17;;;13.70;99.90;;;;;;6281201;22;20151;-33
2022/12/25 13:28:57;;;;;;;5.10;4.23;;;13.80;99.90;;;;;;6334528;22;20166;-32
2022/12/25 13:31:25;;;;;;;3.90;3.57;;;13.80;99.90;;;;;;6307527;22;20154;-35
2022/12/25 13:34:17;;;;;;;4.63;3.47;;;13.80;99.90;;;;;;6306718;22;20187;-35
2022/12/25 13:36:43;;;;;;;5.83;4.63;;;13.90;99.90;;;;;;6280579;22;20146;-34
2022/12/25 13:39:15;;;;;;;10.07;8.17;;;14.00;99.90;;;;;;6334432;22;20152;-34
2022/12/25 13:42:04;;;;;;;10.20;7.83;;;14.10;99.90;;;;;;6335166;22;20132;-32
2022/12/25 13:44:36;;;;;;;6.47;5.87;;;14.20;99.90;;;;;;6307528;22;20160;-32
2022/12/25 13:47:16;;;;;;;8.17;5.33;;;14.30;99.90;;;;;;6307473;22;20236;-32
2022/12/25 13:49:42;;;;;;;8.00;5.67;;;14.40;99.90;;;;;;6333616;22;20236;-32
2022/12/25 13:52:15;;;;;;;7.00;5.63;;;14.40;99.90;;;;;;6281123;22;20194;-32
2022/12/25 13:54:57;;;;;;;7.80;6.20;;;14.50;99.90;;;;;;6307264;22;20189;-34
2022/12/25 13:57:50;;;;;;;6.13;5.40;;;14.40;99.90;;;;;;6335382;22;20147;-33
2022/12/25 14:00:22;;;;;;;6.47;5.33;;;14.40;99.90;;;;;;6329991;22;20151;-33
2022/12/25 14:02:50;;;;;;;5.20;4.70;;;14.30;99.90;;;;;;6333978;22;20162;-33
2022/12/25 14:05:37;;;;;;;5.83;5.23;;;14.30;99.90;;;;;;6307437;22;20152;-33
2022/12/25 14:08:13;;;;;;;4.93;4.43;;;14.10;99.90;;;;;;6335729;22;20189;-33
2022/12/25 14:10:42;;;;;;;7.57;5.73;;;14.00;99.90;;;;;;6283743;22;20163;-34
2022/12/25 14:13:13;;;;;;;5.23;4.37;;;13.90;99.90;;;;;;6335522;22;20191;-35
2022/12/25 14:15:40;;;;;;;4.97;4.37;;;13.70;99.90;;;;;;6307225;22;20143;-34
2022/12/25 14:18:12;;;;;;;6.47;4.90;;;13.60;99.90;;;;;;6334566;22;20154;-34
2022/12/25 14:20:41;;;;;;;6.10;4.73;;;13.60;99.90;;;;;;6335420;22;20224;-34
2022/12/25 14:23:14;;;;;;;6.17;5.57;;;13.50;99.90;;;;;;6335830;22;20245;-33
2022/12/25 14:25:43;;;;;;;6.83;5.00;;;13.40;99.90;;;;;;6281782;22;20148;-34
2022/12/25 14:28:16;;;;;;;6.13;5.53;;;13.20;99.90;;;;;;6307443;22;20160;-33
2022/12/25 14:30:42;;;;;;;6.27;5.23;;;13.10;99.90;;;;;;6307371;22;20154;-35
2022/12/25 14:33:14;;;;;;;6.13;5.43;;;13.00;99.90;;;;;;6334807;22;20182;-34
2022/12/25 14:35:41;;;;;;;6.27;5.30;;;12.90;99.90;;;;;;6334855;22;20185;-34
2022/12/25 14:38:25;;;;;;;6.27;5.50;;;12.80;99.90;;;;;;6309207;22;20151;-36
2022/12/25 14:41:15;;;;;;;6.37;5.13;;;12.70;99.90;;;;;;6309178;22;20193;-35
2022/12/25 14:43:51;;;;;;;5.97;5.03;;;12.60;99.90;;;;;;6309291;22;20183;-34
2022/12/25 14:46:25;;;;;;;5.73;5.00;;;12.50;99.90;;;;;;6282990;22;20159;-32
2022/12/25 14:48:59;;;;;;;6.23;5.13;;;12.40;99.90;;;;;;6309118;22;20139;-33
2022/12/25 14:51:25;;;;;;;7.77;5.70;;;12.30;99.90;;;;;;6308609;22;20159;-33
2022/12/25 14:53:55;;;;;;;7.40;6.20;;;12.20;99.90;;;;;;6308429;22;20191;-32
2022/12/25 14:56:24;;;;;;;6.93;6.13;;;12.10;99.90;;;;;;6282652;22;20169;-32